createdAt,value
2019-01-02T00:00:19.313Z,539.1
2019-01-02T00:01:22.065Z,538.7
2019-01-02T00:02:24.518Z,538.1
2019-01-02T00:03:28.280Z,538.7
2019-01-02T00:04:30.916Z,538.8
2019-01-02T00:05:32.793Z,538.5
2019-01-02T00:06:36.580Z,538.9
2019-01-02T00:07:39.047Z,539.3
2019-01-02T00:08:41.201Z,539.1
2019-01-02T00:09:44.707Z,539.4
2019-01-02T00:10:47.111Z,539.5
2019-01-02T00:11:49.538Z,539.3
2019-01-02T00:12:53.259Z,540.3
2019-01-02T00:13:55.763Z,539.9
2019-01-02T00:14:57.919Z,540.1
2019-01-02T00:16:01.198Z,539.7
2019-01-02T00:17:03.973Z,539.6
2019-01-02T00:18:06.400Z,539.1
2019-01-02T00:19:10.153Z,538.7
2019-01-02T00:20:12.754Z,538.9
2019-01-02T00:21:15.188Z,538.8
2019-01-02T00:22:18.284Z,539.4
2019-01-02T00:23:21.110Z,539.1
2019-01-02T00:24:23.273Z,538.6
2019-01-02T00:25:25.717Z,538.8
2019-01-02T00:26:28.199Z,538.8
2019-01-02T00:27:30.630Z,538.3
2019-01-02T00:28:32.495Z,538.3
2019-01-02T00:29:34.922Z,538.6
2019-01-02T00:30:38.394Z,538.7
2019-01-02T00:31:40.888Z,538.1
2019-01-02T00:32:43.331Z,538.2
2019-01-02T00:33:46.882Z,538.1
2019-01-02T00:34:49.688Z,537.5
2019-01-02T00:35:52.131Z,536
2019-01-02T00:36:55.276Z,536.8
2019-01-02T00:37:57.828Z,537.7
2019-01-02T00:39:00.246Z,537.1
2019-01-02T00:40:03.663Z,536.7
2019-01-02T00:41:06.282Z,535.7
2019-01-02T00:42:08.708Z,536.9
2019-01-02T00:43:11.132Z,536.7
2019-01-02T00:44:12.726Z,536.2
2019-01-02T00:45:22.177Z,537.2
2019-01-02T00:46:23.127Z,535.7
2019-01-02T00:47:25.548Z,535.3
2019-01-02T00:48:28.557Z,535.4
2019-01-02T00:49:31.360Z,535.6
2019-01-02T00:50:33.538Z,535.3
2019-01-02T00:51:36.983Z,535.4
2019-01-02T00:52:39.514Z,535.2
2019-01-02T00:53:41.952Z,534.5
2019-01-02T00:54:45.528Z,535.2
2019-01-02T00:55:48.244Z,535.8
2019-01-02T00:56:51.864Z,535.1
2019-01-02T00:57:54.395Z,534.8
2019-01-02T00:58:56.824Z,535
2019-01-02T01:00:00.024Z,534.7
2019-01-02T01:01:02.713Z,534.6
2019-01-02T01:02:04.858Z,535
2019-01-02T01:03:08.655Z,534.5
2019-01-02T01:04:11.374Z,535
2019-01-02T01:05:14.834Z,534.9
2019-01-02T01:06:17.266Z,534.7
2019-01-02T01:07:19.431Z,535
2019-01-02T01:08:23.180Z,535.2
2019-01-02T01:09:25.551Z,534.4
2019-01-02T01:10:27.990Z,534
2019-01-02T01:11:30.990Z,533.7
2019-01-02T01:12:33.774Z,534.1
2019-01-02T01:13:37.276Z,533.9
2019-01-02T01:14:39.927Z,533.8
2019-01-02T01:15:42.354Z,534
2019-01-02T01:16:45.613Z,533.8
2019-01-02T01:17:48.084Z,533.9
2019-01-02T01:18:50.522Z,534.6
2019-01-02T01:19:54.023Z,533.4
2019-01-02T01:20:56.215Z,533.5
2019-01-02T01:21:58.392Z,533
2019-01-02T01:23:01.646Z,533.3
2019-01-02T01:24:04.153Z,532.8
2019-01-02T01:25:06.602Z,533.1
2019-01-02T01:26:10.188Z,533.1
2019-01-02T01:27:12.984Z,533.3
2019-01-02T01:28:15.417Z,533
2019-01-02T01:29:18.558Z,532.5
2019-01-02T01:30:21.254Z,533.4
2019-01-02T01:31:23.680Z,533.1
2019-01-02T01:32:27.480Z,533.8
2019-01-02T01:33:30.157Z,534.3
2019-01-02T01:34:32.036Z,534.2
2019-01-02T01:35:34.190Z,533.4
2019-01-02T01:36:37.231Z,533.8
2019-01-02T01:37:40.021Z,533.2
2019-01-02T01:38:42.443Z,533.1
2019-01-02T01:39:45.922Z,533.2
2019-01-02T01:40:48.241Z,533
2019-01-02T01:41:50.667Z,533.3
2019-01-02T01:42:54.137Z,533.6
2019-01-02T01:43:56.303Z,533.7
2019-01-02T01:44:58.174Z,534.1
2019-01-02T01:46:01.397Z,534.3
2019-01-02T01:47:03.828Z,534.5
2019-01-02T01:48:06.014Z,534.3
2019-01-02T01:49:09.081Z,534.5
2019-01-02T01:50:11.613Z,534.5
2019-01-02T01:51:13.763Z,534.7
2019-01-02T01:52:17.264Z,535
2019-01-02T01:53:19.784Z,535
2019-01-02T01:54:22.216Z,534.3
2019-01-02T01:55:25.756Z,534.4
2019-01-02T01:56:28.182Z,534.4
2019-01-02T01:57:30.317Z,534.3
2019-01-02T01:58:33.088Z,533.8
2019-01-02T01:59:35.845Z,533.5
2019-01-02T02:00:38.280Z,533.2
2019-01-02T02:01:41.683Z,533
2019-01-02T02:02:44.113Z,533.7
2019-01-02T02:03:45.990Z,533.7
2019-01-02T02:04:48.416Z,533.8
2019-01-02T02:05:51.429Z,533.5
2019-01-02T02:06:53.796Z,532.6
2019-01-02T02:07:56.230Z,533.3
2019-01-02T02:08:59.565Z,533
2019-01-02T02:10:02.314Z,532.7
2019-01-02T02:11:04.472Z,532.1
2019-01-02T02:12:07.887Z,532.3
2019-01-02T02:13:10.414Z,531.9
2019-01-02T02:14:12.577Z,531.9
2019-01-02T02:15:16.266Z,531
2019-01-02T02:16:18.305Z,531.2
2019-01-02T02:17:20.743Z,531.2
2019-01-02T02:18:24.244Z,531
2019-01-02T02:19:25.828Z,531
2019-01-02T02:20:28.255Z,531.1
2019-01-02T02:21:31.927Z,531.1
2019-01-02T02:22:34.668Z,530.9
2019-01-02T02:23:37.099Z,530.8
2019-01-02T02:24:40.335Z,531.2
2019-01-02T02:25:42.704Z,530.9
2019-01-02T02:26:45.168Z,530.8
2019-01-02T02:27:49.007Z,530.4
2019-01-02T02:28:51.142Z,530.8
2019-01-02T02:29:53.270Z,531.3
2019-01-02T02:30:56.302Z,530.8
2019-01-02T02:31:58.787Z,530.9
2019-01-02T02:33:01.224Z,531
2019-01-02T02:34:04.860Z,530.8
2019-01-02T02:35:07.017Z,530.6
2019-01-02T02:36:10.192Z,530.5
2019-01-02T02:37:12.400Z,529.6
2019-01-02T02:38:15.554Z,529.7
2019-01-02T02:39:19.252Z,529.3
2019-01-02T02:40:21.467Z,529.1
2019-01-02T02:41:25.250Z,529.2
2019-01-02T02:42:28.515Z,529.5
2019-01-02T02:43:31.257Z,529.4
2019-01-02T02:44:34.944Z,528.6
2019-01-02T02:45:38.662Z,529.3
2019-01-02T02:46:41.052Z,528.5
2019-01-02T02:47:44.880Z,528.5
2019-01-02T02:48:48.939Z,528.7
2019-01-02T02:49:51.234Z,528.1
2019-01-02T02:50:54.710Z,527.9
2019-01-02T02:51:56.880Z,528
2019-01-02T02:53:00.399Z,528.6
2019-01-02T02:54:03.983Z,528.5
2019-01-02T02:55:06.183Z,528.6
2019-01-02T02:56:09.731Z,528.5
2019-01-02T02:57:12.284Z,528.3
2019-01-02T02:58:15.744Z,528.6
2019-01-02T02:59:19.656Z,528.2
2019-01-02T03:00:22.354Z,527.5
2019-01-02T03:01:25.384Z,528
2019-01-02T03:02:28.122Z,528
2019-01-02T03:03:30.556Z,527.4
2019-01-02T03:04:33.796Z,527.6
2019-01-02T03:05:36.486Z,527.9
2019-01-02T03:06:40.066Z,526.1
2019-01-02T03:07:44.063Z,525.9
2019-01-02T03:08:46.584Z,526
2019-01-02T03:09:50.068Z,527.8
2019-01-02T03:10:54.126Z,527.5
2019-01-02T03:11:56.945Z,528.2
2019-01-02T03:13:00.164Z,527.8
2019-01-02T03:14:03.806Z,527.5
2019-01-02T03:15:06.278Z,526.8
2019-01-02T03:16:09.804Z,526.6
2019-01-02T03:17:13.502Z,526.5
2019-01-02T03:18:16.186Z,526.1
2019-01-02T03:19:19.967Z,526.1
2019-01-02T03:20:22.423Z,525.7
2019-01-02T03:21:25.706Z,526
2019-01-02T03:22:29.758Z,525.8
2019-01-02T03:23:32.400Z,525.9
2019-01-02T03:24:35.778Z,526
2019-01-02T03:25:39.508Z,525.6
2019-01-02T03:26:41.965Z,526.2
2019-01-02T03:27:45.332Z,526.3
2019-01-02T03:28:49.274Z,526.3
2019-01-02T03:29:51.754Z,526.1
2019-01-02T03:30:54.660Z,526.3
2019-01-02T03:31:58.748Z,526.5
2019-01-02T03:33:01.445Z,526.7
2019-01-02T03:34:03.870Z,526.7
2019-01-02T03:35:06.314Z,526
2019-01-02T03:36:08.456Z,526.1
2019-01-02T03:37:10.612Z,526.3
2019-01-02T03:38:12.260Z,526
2019-01-02T03:39:14.409Z,526.7
2019-01-02T03:40:16.832Z,526.6
2019-01-02T03:41:18.727Z,526.3
2019-01-02T03:42:20.894Z,526
2019-01-02T03:43:22.790Z,525.7
2019-01-02T03:44:25.226Z,526.2
2019-01-02T03:45:26.838Z,525.5
2019-01-02T03:46:29.252Z,525.9
2019-01-02T03:47:31.416Z,524.8
2019-01-02T03:48:33.850Z,525.3
2019-01-02T03:49:36.283Z,525.9
2019-01-02T03:50:38.704Z,524.6
2019-01-02T03:51:41.138Z,525
2019-01-02T03:52:43.560Z,525.5
2019-01-02T03:53:45.723Z,524.9
2019-01-02T03:54:48.157Z,524.8
2019-01-02T03:55:50.573Z,524.3
2019-01-02T03:56:53.008Z,523.8
2019-01-02T03:57:54.904Z,523.6
2019-01-02T03:58:57.080Z,523.3
2019-01-02T03:59:59.509Z,522.9
2019-01-02T04:01:01.935Z,522.7
2019-01-02T04:02:04.078Z,521.9
2019-01-02T04:03:06.228Z,522.5
2019-01-02T04:04:08.656Z,523.7
2019-01-02T04:05:10.825Z,523.5
2019-01-02T04:06:12.975Z,524
2019-01-02T04:07:14.889Z,523.8
2019-01-02T04:08:17.352Z,524.4
2019-01-02T04:09:19.772Z,523.9
2019-01-02T04:10:22.208Z,523.9
2019-01-02T04:11:24.358Z,523.6
2019-01-02T04:12:26.783Z,524
2019-01-02T04:13:29.213Z,523.5
2019-01-02T04:14:31.111Z,523.6
2019-01-02T04:15:33.281Z,523.5
2019-01-02T04:16:35.709Z,523.2
2019-01-02T04:17:37.862Z,523.7
2019-01-02T04:18:40.283Z,523.5
2019-01-02T04:19:42.722Z,523
2019-01-02T04:20:45.155Z,523.5
2019-01-02T04:21:47.301Z,523.2
2019-01-02T04:22:49.170Z,523.1
2019-01-02T04:23:51.343Z,523.1
2019-01-02T04:24:53.234Z,523.3
2019-01-02T04:25:55.383Z,523.9
2019-01-02T04:26:57.503Z,524
2019-01-02T04:27:59.138Z,523.8
2019-01-02T04:29:01.281Z,523.6
2019-01-02T04:30:03.176Z,523.7
2019-01-02T04:31:05.334Z,523.4
2019-01-02T04:32:07.759Z,522.9
2019-01-02T04:33:09.923Z,522.9
2019-01-02T04:34:12.374Z,522.1
2019-01-02T04:35:14.543Z,521.7
2019-01-02T04:36:16.994Z,522
2019-01-02T04:37:19.143Z,521.7
2019-01-02T04:38:21.289Z,521.3
2019-01-02T04:39:23.449Z,521.4
2019-01-02T04:40:25.865Z,521.6
2019-01-02T04:41:27.724Z,521.6
2019-01-02T04:42:29.593Z,521.5
2019-01-02T04:43:32.109Z,521.6
2019-01-02T04:44:34.591Z,521.8
2019-01-02T04:45:36.763Z,521.1
2019-01-02T04:46:39.195Z,521.4
2019-01-02T04:47:41.653Z,521.4
2019-01-02T04:48:44.091Z,521.4
2019-01-02T04:49:46.282Z,521.6
2019-01-02T04:50:48.202Z,521.4
2019-01-02T04:51:50.382Z,520.9
2019-01-02T04:52:52.825Z,520.3
2019-01-02T04:53:55.276Z,520.3
2019-01-02T04:54:57.437Z,519.6
2019-01-02T04:55:59.622Z,519.2
2019-01-02T04:57:01.814Z,520.2
2019-01-02T04:58:03.740Z,521.4
2019-01-02T04:59:05.916Z,522
2019-01-02T05:00:08.341Z,522.3
2019-01-02T05:01:10.768Z,522.6
2019-01-02T05:02:12.940Z,523
2019-01-02T05:03:15.384Z,523
2019-01-02T05:04:17.826Z,522.8
2019-01-02T05:05:19.984Z,522.7
2019-01-02T05:06:22.143Z,522.9
2019-01-02T05:07:24.001Z,522.5
2019-01-02T05:08:26.435Z,522.6
2019-01-02T05:09:28.850Z,522.6
2019-01-02T05:10:30.757Z,522.1
2019-01-02T05:11:32.912Z,522.6
2019-01-02T05:12:35.073Z,522.1
2019-01-02T05:13:37.212Z,521.8
2019-01-02T05:14:39.644Z,521.5
2019-01-02T05:15:41.807Z,520.1
2019-01-02T05:16:43.949Z,520.5
2019-01-02T05:17:46.103Z,520.5
2019-01-02T05:18:48.254Z,520.2
2019-01-02T05:19:50.713Z,520.6
2019-01-02T05:20:53.131Z,520.7
2019-01-02T05:21:55.563Z,521.5
2019-01-02T05:22:57.743Z,521.4
2019-01-02T05:24:00.178Z,521.1
2019-01-02T05:25:02.605Z,520.2
2019-01-02T05:26:04.753Z,520.6
2019-01-02T05:27:07.204Z,519.8
2019-01-02T05:28:09.647Z,520.2
2019-01-02T05:29:12.061Z,519.9
2019-01-02T05:30:14.203Z,519.6
2019-01-02T05:31:16.648Z,519.7
2019-01-02T05:32:19.089Z,519.5
2019-01-02T05:33:21.249Z,519.4
2019-01-02T05:34:23.405Z,519.5
2019-01-02T05:35:25.827Z,519.7
2019-01-02T05:36:28.253Z,519.6
2019-01-02T05:37:30.434Z,519.4
2019-01-02T05:38:32.611Z,518.8
2019-01-02T05:39:34.741Z,518.7
2019-01-02T05:40:37.210Z,518.8
2019-01-02T05:41:39.631Z,519.5
2019-01-02T05:42:42.093Z,519.1
2019-01-02T05:43:44.545Z,519.2
2019-01-02T05:44:46.993Z,518.9
2019-01-02T05:45:49.423Z,519.3
2019-01-02T05:46:51.578Z,519.2
2019-01-02T05:47:53.711Z,519.4
2019-01-02T05:48:55.599Z,519.3
2019-01-02T05:49:57.787Z,518.7
2019-01-02T05:51:00.203Z,519
2019-01-02T05:52:02.620Z,519
2019-01-02T05:53:05.073Z,519.2
2019-01-02T05:54:06.961Z,519.9
2019-01-02T05:55:08.850Z,519.1
2019-01-02T05:56:11.278Z,518.9
2019-01-02T05:57:13.458Z,518.9
2019-01-02T05:58:15.620Z,518.7
2019-01-02T05:59:17.547Z,518.4
2019-01-02T06:00:19.435Z,518.7
2019-01-02T06:01:21.348Z,518.3
2019-01-02T06:02:23.512Z,518.3
2019-01-02T06:03:25.949Z,517.7
2019-01-02T06:04:28.106Z,518.3
2019-01-02T06:05:29.673Z,517.5
2019-01-02T06:06:32.108Z,517.3
2019-01-02T06:07:34.541Z,518
2019-01-02T06:08:36.694Z,517.6
2019-01-02T06:09:39.123Z,517.8
2019-01-02T06:10:41.283Z,517.7
2019-01-02T06:11:43.423Z,518.1
2019-01-02T06:12:45.594Z,518.2
2019-01-02T06:13:47.738Z,518.8
2019-01-02T06:14:50.191Z,518.9
2019-01-02T06:15:52.633Z,518.2
2019-01-02T06:16:54.793Z,518.8
2019-01-02T06:17:57.209Z,518.3
2019-01-02T06:18:59.657Z,518.5
2019-01-02T06:20:02.079Z,518.7
2019-01-02T06:21:04.554Z,519.1
2019-01-02T06:22:07.002Z,518.9
2019-01-02T06:23:09.426Z,519.5
2019-01-02T06:24:11.844Z,519.5
2019-01-02T06:25:14.006Z,519.4
2019-01-02T06:26:16.416Z,519.1
2019-01-02T06:27:18.292Z,519.1
2019-01-02T06:28:20.733Z,519.6
2019-01-02T06:29:23.188Z,519.1
2019-01-02T06:30:25.339Z,519.7
2019-01-02T06:31:27.756Z,519.5
2019-01-02T06:32:29.908Z,519.8
2019-01-02T06:33:32.070Z,519.7
2019-01-02T06:34:33.960Z,519.6
2019-01-02T06:35:35.837Z,519.1
2019-01-02T06:36:38.273Z,519.1
2019-01-02T06:37:40.703Z,519.4
2019-01-02T06:38:43.162Z,518.8
2019-01-02T06:39:45.596Z,519.1
2019-01-02T06:40:47.755Z,518.9
2019-01-02T06:41:50.198Z,519.2
2019-01-02T06:42:52.349Z,519.5
2019-01-02T06:43:54.794Z,519.7
2019-01-02T06:44:56.945Z,519.9
2019-01-02T06:45:59.085Z,519.7
2019-01-02T06:47:01.516Z,520.2
2019-01-02T06:48:03.972Z,519.8
2019-01-02T06:49:06.119Z,520.3
2019-01-02T06:50:08.533Z,519.6
2019-01-02T06:51:10.681Z,519.7
2019-01-02T06:52:13.109Z,519.2
2019-01-02T06:53:15.529Z,520
2019-01-02T06:54:17.413Z,519.9
2019-01-02T06:55:19.853Z,520
2019-01-02T06:56:22.268Z,519.7
2019-01-02T06:57:24.433Z,519.5
2019-01-02T06:58:26.855Z,519.3
2019-01-02T06:59:29.276Z,519.1
2019-01-02T07:00:31.137Z,519.1
2019-01-02T07:01:33.565Z,519.2
2019-01-02T07:02:35.721Z,519
2019-01-02T07:03:38.155Z,519.6
2019-01-02T07:04:40.345Z,519.4
2019-01-02T07:05:42.236Z,519.2
2019-01-02T07:06:44.680Z,519.2
2019-01-02T07:07:47.095Z,519.2
2019-01-02T07:08:49.536Z,519
2019-01-02T07:09:51.959Z,519.2
2019-01-02T07:10:54.103Z,518.9
2019-01-02T07:11:56.265Z,519
2019-01-02T07:12:58.695Z,519.2
2019-01-02T07:14:00.853Z,519
2019-01-02T07:15:03.289Z,518.8
2019-01-02T07:16:05.718Z,519.1
2019-01-02T07:17:08.151Z,519.3
2019-01-02T07:18:10.573Z,519
2019-01-02T07:19:12.716Z,519
2019-01-02T07:20:15.181Z,518.5
2019-01-02T07:21:17.315Z,518.3
2019-01-02T07:22:19.744Z,518.5
2019-01-02T07:23:22.165Z,518.2
2019-01-02T07:24:24.607Z,518.2
2019-01-02T07:25:27.041Z,517.8
2019-01-02T07:26:29.210Z,517.2
2019-01-02T07:27:31.341Z,517.6
2019-01-02T07:28:33.242Z,517.5
2019-01-02T07:29:35.672Z,517.8
2019-01-02T07:30:37.865Z,518
2019-01-02T07:31:40.329Z,517.7
2019-01-02T07:32:42.763Z,517.5
2019-01-02T07:33:44.629Z,517.4
2019-01-02T07:34:47.059Z,517.2
2019-01-02T07:35:49.212Z,517.9
2019-01-02T07:36:51.350Z,517.2
2019-01-02T07:37:53.484Z,517.2
2019-01-02T07:38:55.905Z,516.8
2019-01-02T07:39:58.054Z,516.8
2019-01-02T07:41:00.482Z,517.2
2019-01-02T07:42:02.903Z,517.9
2019-01-02T07:43:05.355Z,517.5
2019-01-02T07:44:07.502Z,517.7
2019-01-02T07:45:09.657Z,517.4
2019-01-02T07:46:11.826Z,517.5
2019-01-02T07:47:13.987Z,517.4
2019-01-02T07:48:16.433Z,517.9
2019-01-02T07:49:18.600Z,517.2
2019-01-02T07:50:21.027Z,517.6
2019-01-02T07:51:23.176Z,517.4
2019-01-02T07:52:25.612Z,517.2
2019-01-02T07:53:28.066Z,516.6
2019-01-02T07:54:30.490Z,516.4
2019-01-02T07:55:32.921Z,516.2
2019-01-02T07:56:35.371Z,516.8
2019-01-02T07:57:37.803Z,516.1
2019-01-02T07:58:40.237Z,515.9
2019-01-02T07:59:42.097Z,515.2
2019-01-02T08:00:44.238Z,514.6
2019-01-02T08:01:46.406Z,514.9
2019-01-02T08:02:48.836Z,515.6
2019-01-02T08:03:51.179Z,515.2
2019-01-02T08:04:54.648Z,515.8
2019-01-02T08:05:56.815Z,515
2019-01-02T08:06:58.965Z,515.8
2019-01-02T08:08:01.114Z,516.1
2019-01-02T08:09:02.981Z,515.4
2019-01-02T08:10:05.156Z,515.2
2019-01-02T08:11:07.598Z,515.1
2019-01-02T08:12:10.016Z,515.3
2019-01-02T08:13:12.441Z,515.7
2019-01-02T08:14:14.906Z,515.5
2019-01-02T08:15:17.058Z,515.5
2019-01-02T08:16:19.226Z,514.6
2019-01-02T08:17:21.675Z,514.7
2019-01-02T08:18:24.113Z,514
2019-01-02T08:19:26.320Z,514
2019-01-02T08:20:28.762Z,514.1
2019-01-02T08:21:31.188Z,513.8
2019-01-02T08:22:33.335Z,514.5
2019-01-02T08:23:35.516Z,514.6
2019-01-02T08:24:37.678Z,514.7
2019-01-02T08:25:39.825Z,514.3
2019-01-02T08:26:42.251Z,514.2
2019-01-02T08:27:44.409Z,513.9
2019-01-02T08:28:46.588Z,513.6
2019-01-02T08:29:48.766Z,513.9
2019-01-02T08:30:50.661Z,513.2
2019-01-02T08:31:53.095Z,513.5
2019-01-02T08:32:55.540Z,513.9
2019-01-02T08:33:57.695Z,513.9
2019-01-02T08:34:59.578Z,514.3
2019-01-02T08:36:01.996Z,513.7
2019-01-02T08:37:04.432Z,513.7
2019-01-02T08:38:06.331Z,513.7
2019-01-02T08:39:08.485Z,513.5
2019-01-02T08:40:10.376Z,513.7
2019-01-02T08:41:12.265Z,513.4
2019-01-02T08:42:14.692Z,513.9
2019-01-02T08:43:17.110Z,513.6
2019-01-02T08:44:19.534Z,513.6
2019-01-02T08:45:21.412Z,513
2019-01-02T08:46:23.842Z,513.2
2019-01-02T08:47:25.995Z,513.8
2019-01-02T08:48:28.151Z,513.8
2019-01-02T08:49:30.292Z,512.9
2019-01-02T08:50:32.747Z,513.1
2019-01-02T08:51:35.187Z,512.3
2019-01-02T08:52:37.603Z,512.2
2019-01-02T08:53:40.034Z,512.9
2019-01-02T08:54:42.483Z,513.3
2019-01-02T08:55:44.905Z,512.7
2019-01-02T08:56:47.335Z,512.7
2019-01-02T08:57:49.501Z,513.2
2019-01-02T08:58:51.933Z,512.2
2019-01-02T08:59:54.095Z,512.8
2019-01-02T09:00:56.256Z,512.6
2019-01-02T09:01:58.426Z,511.7
2019-01-02T09:03:00.573Z,511.2
2019-01-02T09:04:03.005Z,511.5
2019-01-02T09:05:05.483Z,510.9
2019-01-02T09:06:07.921Z,510.3
2019-01-02T09:07:10.045Z,510.1
2019-01-02T09:08:12.193Z,509.8
2019-01-02T09:09:14.056Z,509.6
2019-01-02T09:10:16.483Z,510.1
2019-01-02T09:11:18.691Z,509.4
2019-01-02T09:12:21.163Z,510.2
2019-01-02T09:13:23.604Z,510.1
2019-01-02T09:14:25.770Z,509.6
2019-01-02T09:15:28.217Z,509.7
2019-01-02T09:16:30.421Z,509.8
2019-01-02T09:17:32.591Z,509.4
2019-01-02T09:18:35.011Z,509.7
2019-01-02T09:19:37.189Z,509
2019-01-02T09:20:39.352Z,509.2
2019-01-02T09:21:41.775Z,509.1
2019-01-02T09:22:43.920Z,509.6
2019-01-02T09:23:45.846Z,509.5
2019-01-02T09:24:48.023Z,509.4
2019-01-02T09:25:50.183Z,509.5
2019-01-02T09:26:52.351Z,509
2019-01-02T09:27:54.798Z,509.8
2019-01-02T09:28:56.682Z,509
2019-01-02T09:29:59.116Z,509
2019-01-02T09:31:01.285Z,509.1
2019-01-02T09:32:03.468Z,508.7
2019-01-02T09:33:05.627Z,509.1
2019-01-02T09:34:08.043Z,509.3
2019-01-02T09:35:10.215Z,508.8
2019-01-02T09:36:12.101Z,509.5
2019-01-02T09:37:14.526Z,508.8
2019-01-02T09:38:16.686Z,509.3
2019-01-02T09:39:19.130Z,508.6
2019-01-02T09:40:20.997Z,508.9
2019-01-02T09:41:23.444Z,509.7
2019-01-02T09:42:25.604Z,509.4
2019-01-02T09:43:27.733Z,509.7
2019-01-02T09:44:29.900Z,509.4
2019-01-02T09:45:31.777Z,509
2019-01-02T09:46:34.570Z,509.2
2019-01-02T09:47:37.040Z,509.3
2019-01-02T09:48:39.203Z,509.4
2019-01-02T09:49:41.375Z,509.3
2019-01-02T09:50:43.820Z,509.1
2019-01-02T09:51:45.985Z,509.2
2019-01-02T09:52:48.415Z,509.3
2019-01-02T09:53:50.581Z,509.2
2019-01-02T09:54:53.009Z,508.8
2019-01-02T09:55:55.456Z,509.2
2019-01-02T09:56:57.626Z,509
2019-01-02T09:57:59.785Z,508.7
2019-01-02T09:59:01.958Z,508.9
2019-01-02T10:00:04.407Z,508.3
2019-01-02T10:01:06.826Z,509
2019-01-02T10:02:08.989Z,509.6
2019-01-02T10:03:11.155Z,509
2019-01-02T10:04:13.303Z,508.8
2019-01-02T10:05:15.199Z,508.3
2019-01-02T10:06:17.373Z,508.7
2019-01-02T10:07:19.793Z,508.5
2019-01-02T10:08:21.934Z,508.2
2019-01-02T10:09:24.077Z,508.5
2019-01-02T10:10:26.493Z,508.2
2019-01-02T10:11:28.931Z,508.5
2019-01-02T10:12:31.356Z,508.6
2019-01-02T10:13:33.275Z,508.4
2019-01-02T10:14:35.448Z,509.5
2019-01-02T10:15:37.885Z,508.2
2019-01-02T10:16:40.044Z,509
2019-01-02T10:17:42.496Z,508.7
2019-01-02T10:18:44.926Z,508.6
2019-01-02T10:19:47.070Z,508.7
2019-01-02T10:20:48.927Z,508.7
2019-01-02T10:21:51.074Z,508.5
2019-01-02T10:22:53.226Z,508.5
2019-01-02T10:23:55.394Z,508.5
2019-01-02T10:24:57.818Z,508.3
2019-01-02T10:25:59.984Z,508.7
2019-01-02T10:27:02.442Z,509
2019-01-02T10:28:04.870Z,509.1
2019-01-02T10:29:07.294Z,509.2
2019-01-02T10:30:09.729Z,509.4
2019-01-02T10:31:12.163Z,509.1
2019-01-02T10:32:14.068Z,509.1
2019-01-02T10:33:16.508Z,509.1
2019-01-02T10:34:18.656Z,509.4
2019-01-02T10:35:21.085Z,509.6
2019-01-02T10:36:22.942Z,509.7
2019-01-02T10:37:25.366Z,509.7
2019-01-02T10:38:27.526Z,509.7
2019-01-02T10:39:29.395Z,509.4
2019-01-02T10:40:31.556Z,509.6
2019-01-02T10:41:34.006Z,509.5
2019-01-02T10:42:36.166Z,510.2
2019-01-02T10:43:38.673Z,510
2019-01-02T10:44:40.841Z,510
2019-01-02T10:45:42.722Z,510.3
2019-01-02T10:46:44.896Z,510.1
2019-01-02T10:47:47.065Z,509.8
2019-01-02T10:48:48.690Z,510.1
2019-01-02T10:49:51.133Z,509
2019-01-02T10:50:53.574Z,509.6
2019-01-02T10:51:56.056Z,508.9
2019-01-02T10:52:58.212Z,509.7
2019-01-02T10:54:00.384Z,509.7
2019-01-02T10:55:02.815Z,509.9
2019-01-02T10:56:05.245Z,509.8
2019-01-02T10:57:07.388Z,510.2
2019-01-02T10:58:09.821Z,510.4
2019-01-02T10:59:12.255Z,510.6
2019-01-02T11:00:14.706Z,511.1
2019-01-02T11:01:17.146Z,511.5
2019-01-02T11:02:19.574Z,511.8
2019-01-02T11:03:21.998Z,512.2
2019-01-02T11:04:24.158Z,511.4
2019-01-02T11:05:26.316Z,511.6
2019-01-02T11:06:28.754Z,511.5
2019-01-02T11:07:30.632Z,511.7
2019-01-02T11:08:33.055Z,511.4
2019-01-02T11:09:35.221Z,511.4
2019-01-02T11:10:37.378Z,511.4
2019-01-02T11:11:39.831Z,511.8
2019-01-02T11:12:41.995Z,510.9
2019-01-02T11:13:44.150Z,511.5
2019-01-02T11:14:46.569Z,511.9
2019-01-02T11:15:48.729Z,511.6
2019-01-02T11:16:51.153Z,511.4
2019-01-02T11:17:53.311Z,511.9
2019-01-02T11:18:55.744Z,511.9
2019-01-02T11:19:57.662Z,512.6
2019-01-02T11:21:00.101Z,512.3
2019-01-02T11:22:02.255Z,512.4
2019-01-02T11:23:04.679Z,512.2
2019-01-02T11:24:07.105Z,512.8
2019-01-02T11:25:09.529Z,512.2
2019-01-02T11:26:11.976Z,512.4
2019-01-02T11:27:14.407Z,512.6
2019-01-02T11:28:16.843Z,513.1
2019-01-02T11:29:19.272Z,512.7
2019-01-02T11:30:21.714Z,513.6
2019-01-02T11:31:24.155Z,514.6
2019-01-02T11:32:26.327Z,514.4
2019-01-02T11:33:28.767Z,514.8
2019-01-02T11:34:31.199Z,514.6
2019-01-02T11:35:33.651Z,514.4
2019-01-02T11:36:35.814Z,514.4
2019-01-02T11:37:37.687Z,514.3
2019-01-02T11:38:39.846Z,515
2019-01-02T11:39:41.733Z,515.1
2019-01-02T11:40:44.169Z,515.2
2019-01-02T11:41:46.314Z,515.7
2019-01-02T11:42:48.469Z,515.8
2019-01-02T11:43:50.913Z,515.7
2019-01-02T11:44:52.781Z,516.1
2019-01-02T11:45:55.207Z,516.5
2019-01-02T11:46:57.636Z,516.8
2019-01-02T11:48:00.069Z,516.7
2019-01-02T11:49:02.516Z,516.6
2019-01-02T11:50:04.955Z,516.4
2019-01-02T11:51:06.833Z,517.2
2019-01-02T11:52:09.260Z,516.9
2019-01-02T11:53:11.412Z,518.4
2019-01-02T11:54:13.277Z,517.6
2019-01-02T11:55:15.714Z,517.7
2019-01-02T11:56:18.147Z,517.9
2019-01-02T11:57:20.688Z,517.8
2019-01-02T11:58:23.144Z,518.7
2019-01-02T11:59:25.576Z,519.4
2019-01-02T12:00:28.043Z,519.3
2019-01-02T12:01:30.481Z,518.6
2019-01-02T12:03:37.643Z,518.7
2019-01-02T12:04:40.082Z,518.7
2019-01-02T12:05:42.507Z,518.7
2019-01-02T12:06:44.935Z,519
2019-01-02T12:07:47.394Z,519.3
2019-01-02T12:08:49.823Z,519.4
2019-01-02T12:09:52.256Z,519.3
2019-01-02T12:10:54.416Z,518.9
2019-01-02T12:11:56.555Z,519.2
2019-01-02T12:12:58.744Z,518.6
2019-01-02T12:14:00.903Z,519.3
2019-01-02T12:15:03.334Z,518.6
2019-01-02T12:16:05.485Z,518.5
2019-01-02T12:17:07.661Z,519.5
2019-01-02T12:18:10.096Z,519.5
2019-01-02T12:19:12.246Z,519.6
2019-01-02T12:20:14.677Z,519.7
2019-01-02T12:21:16.864Z,519.7
2019-01-02T12:22:20.448Z,520.4
2019-01-02T12:23:22.627Z,519.7
2019-01-02T12:24:25.073Z,520.7
2019-01-02T12:25:27.516Z,520.2
2019-01-02T12:26:29.949Z,520.1
2019-01-02T12:27:32.406Z,519.8
2019-01-02T12:28:34.840Z,519.1
2019-01-02T12:29:37.275Z,519.5
2019-01-02T12:30:39.699Z,519.9
2019-01-02T12:31:41.857Z,519.2
2019-01-02T12:32:44.022Z,519.2
2019-01-02T12:33:46.165Z,519.5
2019-01-02T12:34:48.303Z,520.4
2019-01-02T12:35:50.764Z,520.4
2019-01-02T12:36:52.679Z,520.3
2019-01-02T12:37:54.574Z,519.6
2019-01-02T12:38:56.744Z,520.1
2019-01-02T12:39:59.185Z,520.6
2019-01-02T12:41:01.627Z,520.5
2019-01-02T12:42:03.519Z,520.5
2019-01-02T12:43:05.954Z,520.8
2019-01-02T12:44:07.845Z,520
2019-01-02T12:45:10.278Z,520.2
2019-01-02T12:46:12.708Z,520.1
2019-01-02T12:47:14.858Z,520.2
2019-01-02T12:48:17.013Z,520.3
2019-01-02T12:49:19.441Z,520.7
2019-01-02T12:50:21.905Z,520.2
2019-01-02T12:51:24.327Z,520
2019-01-02T12:52:26.491Z,520.1
2019-01-02T12:53:28.668Z,520.5
2019-01-02T12:54:31.093Z,520
2019-01-02T12:55:33.554Z,520.2
2019-01-02T12:56:35.466Z,520.7
2019-01-02T12:57:37.625Z,521.1
2019-01-02T12:58:40.069Z,520.4
2019-01-02T12:59:41.914Z,520.8
2019-01-02T13:00:44.083Z,520.8
2019-01-02T13:01:45.982Z,521.3
2019-01-02T13:02:47.871Z,521.1
2019-01-02T13:03:50.295Z,521.2
2019-01-02T13:04:52.728Z,521.7
2019-01-02T13:05:54.886Z,521.8
2019-01-02T13:06:57.312Z,522
2019-01-02T13:07:59.457Z,522
2019-01-02T13:09:01.891Z,522.1
2019-01-02T13:10:04.050Z,523.4
2019-01-02T13:11:06.177Z,523.1
2019-01-02T13:12:08.318Z,522.7
2019-01-02T13:13:11.578Z,522.7
2019-01-02T13:14:13.754Z,522.5
2019-01-02T13:15:15.628Z,522.5
2019-01-02T13:16:17.505Z,522
2019-01-02T13:17:19.665Z,521.2
2019-01-02T13:18:21.818Z,521.1
2019-01-02T13:19:24.250Z,520.2
2019-01-02T13:20:26.393Z,518.4
2019-01-02T13:21:28.823Z,519.5
2019-01-02T13:22:30.986Z,519.6
2019-01-02T13:23:33.413Z,520.3
2019-01-02T13:24:35.280Z,521
2019-01-02T13:25:37.701Z,520.6
2019-01-02T13:26:40.122Z,521.7
2019-01-02T13:27:42.369Z,521.9
2019-01-02T13:28:44.805Z,521.8
2019-01-02T13:29:47.267Z,521.6